createdAt,value
2023-03-27T00:01:15.957Z,6.49
2023-03-27T00:03:42.934Z,6.49
2023-03-27T00:06:12.196Z,6.50
2023-03-27T00:08:38.771Z,6.50
2023-03-27T00:11:07.117Z,6.50
2023-03-27T00:13:34.033Z,6.51
2023-03-27T00:16:01.071Z,6.52
2023-03-27T00:18:29.536Z,6.51
2023-03-27T00:21:00.841Z,6.52
2023-03-27T00:23:31.381Z,6.52
2023-03-27T00:25:58.900Z,6.50
2023-03-27T00:28:27.373Z,6.50
2023-03-27T00:30:55.827Z,6.49
2023-03-27T00:33:23.690Z,6.49
2023-03-27T00:35:51.068Z,6.48
2023-03-27T00:38:18.314Z,6.44
2023-03-27T00:40:46.738Z,6.37
2023-03-27T00:43:22.317Z,6.30
2023-03-27T00:45:52.642Z,6.28
2023-03-27T00:48:20.660Z,6.27
2023-03-27T00:50:49.624Z,6.30
2023-03-27T00:53:21.210Z,6.25
2023-03-27T00:55:51.586Z,6.23
2023-03-27T00:58:26.130Z,6.21
2023-03-27T01:00:55.499Z,6.17
2023-03-27T01:03:27.446Z,6.14
2023-03-27T01:05:55.941Z,6.10
2023-03-27T01:08:24.413Z,6.07
2023-03-27T01:11:09.516Z,6.05
2023-03-27T01:14:00.494Z,6.00
2023-03-27T01:16:52.158Z,5.98
2023-03-27T01:19:49.768Z,5.94
2023-03-27T01:22:34.866Z,5.90
2023-03-27T01:25:40.011Z,5.88
2023-03-27T01:28:27.065Z,5.88
2023-03-27T01:31:05.719Z,5.86
2023-03-27T01:34:11.077Z,5.82
2023-03-27T01:37:18.875Z,5.80
2023-03-27T01:40:24.356Z,5.78
2023-03-27T01:42:59.541Z,5.70
2023-03-27T01:46:01.135Z,5.62
2023-03-27T01:48:45.970Z,5.55
2023-03-27T01:51:25.981Z,5.47
2023-03-27T01:53:58.923Z,5.44
2023-03-27T01:56:32.564Z,5.42
2023-03-27T01:59:21.824Z,5.39
2023-03-27T02:01:53.453Z,5.39
2023-03-27T02:04:27.322Z,5.37
2023-03-27T02:07:04.888Z,5.34
2023-03-27T02:09:37.337Z,5.33
2023-03-27T02:12:11.972Z,5.31
2023-03-27T02:14:42.812Z,5.21
2023-03-27T02:17:13.937Z,5.10
2023-03-27T02:20:09.490Z,5.08
2023-03-27T02:22:38.189Z,5.04
2023-03-27T02:25:29.929Z,5.05
2023-03-27T02:28:11.177Z,5.04
2023-03-27T02:30:42.342Z,5.06
2023-03-27T02:33:17.828Z,5.08
2023-03-27T02:35:55.597Z,5.08
2023-03-27T02:38:33.056Z,5.10
2023-03-27T02:41:41.031Z,5.11
2023-03-27T02:44:12.743Z,5.11
2023-03-27T02:46:42.122Z,4.93
2023-03-27T02:49:24.056Z,4.77
2023-03-27T02:52:01.071Z,4.63
2023-03-27T02:54:32.417Z,4.59
2023-03-27T02:57:05.111Z,4.57
2023-03-27T02:59:42.649Z,4.52
2023-03-27T03:02:14.638Z,4.51
2023-03-27T03:04:46.913Z,4.49
2023-03-27T03:07:14.318Z,4.43
2023-03-27T03:09:41.640Z,4.38
2023-03-27T03:12:08.717Z,4.31
2023-03-27T03:14:39.833Z,4.21
2023-03-27T03:17:06.585Z,4.09
2023-03-27T03:19:33.027Z,4.01
2023-03-27T03:22:01.011Z,3.98
2023-03-27T03:24:27.695Z,3.94
2023-03-27T03:26:54.210Z,3.94
2023-03-27T03:29:20.590Z,3.97
2023-03-27T03:31:47.113Z,4.00
2023-03-27T03:34:16.282Z,4.03
2023-03-27T03:36:44.795Z,4.04
2023-03-27T03:39:12.569Z,4.07
2023-03-27T03:41:39.146Z,4.03
2023-03-27T03:44:05.683Z,4.03
2023-03-27T03:46:32.243Z,3.90
2023-03-27T03:48:59.440Z,3.85
2023-03-27T03:51:26.319Z,3.77
2023-03-27T03:53:52.891Z,3.76
2023-03-27T03:56:19.704Z,3.75
2023-03-27T03:58:46.162Z,3.76
2023-03-27T04:01:12.657Z,3.77
2023-03-27T04:03:39.254Z,3.81
2023-03-27T04:06:07.317Z,3.86
2023-03-27T04:08:34.840Z,3.87
2023-03-27T04:11:01.260Z,3.87
2023-03-27T04:13:27.674Z,3.75
2023-03-27T04:15:55.205Z,3.64
2023-03-27T04:18:24.713Z,3.58
2023-03-27T04:20:51.285Z,3.56
2023-03-27T04:23:21.147Z,3.54
2023-03-27T04:25:47.631Z,3.52
2023-03-27T04:28:17.524Z,3.54
2023-03-27T04:30:45.229Z,3.55
2023-03-27T04:33:22.977Z,3.60
2023-03-27T04:36:06.429Z,3.59
2023-03-27T04:38:36.623Z,3.53
2023-03-27T04:41:03.722Z,3.45
2023-03-27T04:43:30.686Z,3.34
2023-03-27T04:45:57.068Z,3.28
2023-03-27T04:48:23.427Z,3.22
2023-03-27T04:50:49.829Z,3.22
2023-03-27T04:53:17.168Z,3.20
2023-03-27T04:55:45.797Z,3.21
2023-03-27T04:58:12.970Z,3.14
2023-03-27T05:00:40.183Z,3.10
2023-03-27T05:03:07.879Z,3.10
2023-03-27T05:05:34.772Z,3.11
2023-03-27T05:08:01.450Z,3.11
2023-03-27T05:10:27.876Z,3.09
2023-03-27T05:12:57.109Z,3.07
2023-03-27T05:15:24.355Z,3.00
2023-03-27T05:17:54.699Z,3.00
2023-03-27T05:20:22.236Z,2.98
2023-03-27T05:22:49.260Z,2.96
2023-03-27T05:25:15.958Z,2.89
2023-03-27T05:27:50.079Z,2.84
2023-03-27T05:30:19.053Z,2.82
2023-03-27T05:32:52.220Z,2.80
2023-03-27T05:35:21.652Z,2.80
2023-03-27T05:37:49.971Z,2.80
2023-03-27T05:40:20.615Z,2.79
2023-03-27T05:42:47.486Z,2.79
2023-03-27T05:45:14.711Z,2.78
2023-03-27T05:47:51.960Z,2.78
2023-03-27T05:50:21.494Z,2.78
2023-03-27T05:52:47.935Z,2.76
2023-03-27T05:55:17.234Z,2.72
2023-03-27T05:57:43.658Z,2.70
2023-03-27T06:00:13.914Z,2.67
2023-03-27T06:02:43.165Z,2.67
2023-03-27T06:05:13.365Z,2.63
2023-03-27T06:07:42.468Z,2.63
2023-03-27T06:10:13.816Z,2.66
2023-03-27T06:12:41.668Z,2.65
2023-03-27T06:15:09.750Z,2.66
2023-03-27T06:17:39.330Z,2.67
2023-03-27T06:20:12.327Z,2.71
2023-03-27T06:22:42.429Z,2.69
2023-03-27T06:25:09.098Z,2.70
2023-03-27T06:27:35.565Z,2.66
2023-03-27T06:30:02.009Z,2.66
2023-03-27T06:32:28.485Z,2.67
2023-03-27T06:34:54.887Z,2.68
2023-03-27T06:37:21.288Z,2.70
2023-03-27T06:39:50.724Z,2.73
2023-03-27T06:42:17.426Z,2.76
2023-03-27T06:44:44.358Z,2.76
2023-03-27T06:47:10.794Z,2.77
2023-03-27T06:49:37.250Z,2.78
2023-03-27T06:52:04.025Z,2.80
2023-03-27T06:54:30.942Z,2.82
2023-03-27T06:56:57.590Z,2.90
2023-03-27T06:59:23.961Z,2.95
2023-03-27T07:01:52.336Z,3.00
2023-03-27T07:04:18.835Z,3.00
2023-03-27T07:06:48.691Z,3.09
2023-03-27T07:09:15.225Z,3.09
2023-03-27T07:11:41.609Z,3.13
2023-03-27T07:14:08.252Z,3.21
2023-03-27T07:16:34.719Z,3.28
2023-03-27T07:19:02.363Z,3.37
2023-03-27T07:21:29.565Z,3.39
2023-03-27T07:23:56.141Z,3.42
2023-03-27T07:26:22.594Z,3.46
2023-03-27T07:28:50.498Z,3.51
2023-03-27T07:31:31.534Z,3.65
2023-03-27T07:34:05.308Z,3.83
2023-03-27T07:36:31.705Z,3.99
2023-03-27T07:39:00.341Z,4.02
2023-03-27T07:41:26.860Z,4.02
2023-03-27T07:43:53.264Z,4.11
2023-03-27T07:46:19.724Z,4.20
2023-03-27T07:48:46.204Z,4.24
2023-03-27T07:51:14.350Z,4.08
2023-03-27T07:53:41.478Z,3.90
2023-03-27T07:56:08.773Z,3.85
2023-03-27T07:58:35.467Z,3.82
2023-03-27T08:01:03.284Z,3.81
2023-03-27T08:03:30.842Z,3.86
2023-03-27T08:05:59.381Z,3.87
2023-03-27T08:08:26.564Z,3.86
2023-03-27T08:10:57.731Z,3.87
2023-03-27T08:13:24.546Z,3.89
2023-03-27T08:15:51.430Z,3.89
2023-03-27T08:18:17.939Z,3.92
2023-03-27T08:20:45.580Z,4.07
2023-03-27T08:23:12.194Z,4.17
2023-03-27T08:25:38.703Z,4.17
2023-03-27T08:28:05.191Z,4.17
2023-03-27T08:30:31.706Z,4.24
2023-03-27T08:33:00.014Z,4.34
2023-03-27T08:35:26.629Z,4.45
2023-03-27T08:37:53.965Z,4.55
2023-03-27T08:40:26.130Z,4.57
2023-03-27T08:42:57.128Z,4.58
2023-03-27T08:45:32.349Z,4.74
2023-03-27T08:48:05.642Z,4.91
2023-03-27T08:50:44.061Z,5.04
2023-03-27T08:53:38.264Z,5.13
2023-03-27T08:56:05.459Z,4.97
2023-03-27T08:58:33.602Z,5.03
2023-03-27T09:01:12.003Z,5.04
2023-03-27T09:03:55.847Z,5.31
2023-03-27T09:06:28.002Z,5.47
2023-03-27T09:09:46.433Z,5.64
2023-03-27T09:12:26.284Z,5.75
2023-03-27T09:15:00.467Z,5.70
2023-03-27T09:17:39.395Z,5.98
2023-03-27T09:20:40.696Z,6.00
2023-03-27T09:23:21.687Z,6.01
2023-03-27T09:25:56.000Z,6.12
2023-03-27T09:28:29.989Z,6.29
2023-03-27T09:30:57.469Z,6.36
2023-03-27T09:33:27.052Z,6.33
2023-03-27T09:35:54.235Z,6.25
2023-03-27T09:38:38.752Z,6.35
2023-03-27T09:41:10.662Z,6.43
2023-03-27T09:43:58.212Z,6.35
2023-03-27T09:46:28.415Z,6.48
2023-03-27T09:49:20.934Z,6.51
2023-03-27T09:51:53.210Z,6.75
2023-03-27T09:54:22.367Z,6.83
2023-03-27T09:56:53.834Z,6.83
2023-03-27T09:59:29.563Z,6.81
2023-03-27T10:02:08.046Z,6.68
2023-03-27T10:04:35.662Z,6.86
2023-03-27T10:07:09.401Z,6.97
2023-03-27T10:09:38.405Z,7.11
2023-03-27T10:12:08.050Z,7.19
2023-03-27T10:14:40.092Z,7.22
2023-03-27T10:17:07.369Z,7.37
2023-03-27T10:19:38.663Z,7.54
2023-03-27T10:22:18.699Z,7.01
2023-03-27T10:24:47.703Z,6.55
2023-03-27T10:27:26.434Z,6.46
2023-03-27T10:29:53.256Z,6.88
2023-03-27T10:35:27.087Z,7.20
2023-03-27T10:37:56.318Z,7.08
2023-03-27T10:40:31.041Z,6.78
2023-03-27T10:43:02.978Z,7.08
2023-03-27T10:45:31.593Z,7.24
2023-03-27T10:48:01.897Z,7.52
2023-03-27T10:50:33.710Z,7.28
2023-03-27T10:53:14.415Z,7.33
2023-03-27T10:55:51.683Z,7.35
2023-03-27T10:58:27.886Z,7.64
2023-03-27T11:01:19.513Z,7.89
2023-03-27T11:03:50.984Z,7.77
2023-03-27T11:06:20.846Z,7.78
2023-03-27T11:09:06.496Z,7.23
2023-03-27T11:11:38.815Z,6.81
2023-03-27T11:14:13.857Z,6.76
2023-03-27T11:16:49.599Z,7.16
2023-03-27T11:19:22.438Z,7.62
2023-03-27T11:21:56.037Z,7.71
2023-03-27T11:24:38.385Z,7.70
2023-03-27T11:27:15.290Z,7.53
2023-03-27T11:29:58.802Z,7.21
2023-03-27T11:33:01.794Z,7.15
2023-03-27T11:35:36.311Z,7.47
2023-03-27T11:38:08.367Z,7.18
2023-03-27T11:40:39.792Z,6.82
2023-03-27T11:43:11.578Z,7.22
2023-03-27T11:45:53.087Z,7.83
2023-03-27T11:48:50.882Z,8.29
2023-03-27T11:51:46.620Z,8.57
2023-03-27T11:54:27.151Z,8.37
2023-03-27T11:57:00.153Z,8.61
2023-03-27T11:59:48.005Z,8.86
2023-03-27T12:03:02.164Z,9.08
2023-03-27T12:05:55.273Z,8.45
2023-03-27T12:08:51.017Z,8.60
2023-03-27T12:11:20.424Z,8.73
2023-03-27T12:14:17.631Z,8.97
2023-03-27T12:16:45.784Z,8.99
2023-03-27T12:19:38.528Z,8.36
2023-03-27T12:22:30.165Z,7.84
2023-03-27T12:25:06.192Z,7.82
2023-03-27T12:27:42.144Z,8.18
2023-03-27T12:30:17.633Z,8.25
2023-03-27T12:32:55.370Z,8.33
2023-03-27T12:35:26.883Z,8.89
2023-03-27T12:38:00.727Z,9.08
2023-03-27T12:40:33.148Z,9.20
2023-03-27T12:43:07.447Z,9.42
2023-03-27T12:45:38.773Z,9.30
2023-03-27T12:48:11.057Z,9.22
2023-03-27T12:50:45.211Z,9.02
2023-03-27T12:53:26.905Z,8.81
2023-03-27T12:56:16.158Z,8.59
2023-03-27T12:58:44.731Z,8.52
2023-03-27T13:01:26.445Z,8.32
2023-03-27T13:04:31.449Z,8.16
2023-03-27T13:07:11.749Z,7.99
2023-03-27T13:10:08.259Z,7.87
2023-03-27T13:12:59.586Z,7.67
2023-03-27T13:15:49.112Z,7.51
2023-03-27T13:18:33.409Z,7.50
2023-03-27T13:21:27.813Z,7.40
2023-03-27T13:24:12.197Z,7.23
2023-03-27T13:26:58.387Z,7.02
2023-03-27T13:29:30.367Z,6.93
2023-03-27T13:32:03.355Z,6.78
2023-03-27T13:34:40.806Z,6.51
2023-03-27T13:37:07.454Z,6.32
2023-03-27T13:39:59.610Z,5.89
2023-03-27T13:42:37.436Z,5.52
2023-03-27T13:45:15.220Z,5.33
2023-03-27T13:48:13.049Z,5.28
2023-03-27T13:51:11.882Z,5.38
2023-03-27T13:53:44.418Z,5.35
2023-03-27T13:56:29.763Z,5.36
2023-03-27T13:59:18.186Z,5.48
2023-03-27T14:01:47.781Z,5.54
2023-03-27T14:04:23.490Z,5.41
2023-03-27T14:07:05.092Z,5.16
2023-03-27T14:10:03.303Z,5.07
2023-03-27T14:12:59.033Z,5.20
2023-03-27T14:15:50.509Z,5.75
2023-03-27T14:19:01.020Z,6.50
2023-03-27T14:21:38.510Z,6.81
2023-03-27T14:24:24.139Z,7.11
2023-03-27T14:26:53.793Z,7.17
2023-03-27T14:29:22.651Z,7.29
2023-03-27T14:31:49.506Z,7.16
2023-03-27T14:34:22.453Z,6.95
2023-03-27T14:36:53.576Z,6.67
2023-03-27T14:39:22.551Z,6.55
2023-03-27T14:42:00.999Z,6.48
2023-03-27T14:44:33.592Z,6.36
2023-03-27T14:47:09.925Z,6.30
2023-03-27T14:49:45.311Z,6.37
2023-03-27T14:52:22.037Z,6.48
2023-03-27T14:54:55.186Z,6.51
2023-03-27T14:57:22.675Z,6.60
2023-03-27T14:59:49.331Z,6.68
2023-03-27T15:04:56.533Z,6.66
2023-03-27T15:07:30.843Z,6.55
2023-03-27T15:10:06.411Z,6.47
2023-03-27T15:12:36.904Z,6.45
2023-03-27T15:15:06.924Z,6.50
2023-03-27T15:17:34.775Z,6.54
2023-03-27T15:20:14.345Z,6.60
2023-03-27T15:22:46.118Z,6.65
2023-03-27T15:25:17.888Z,6.44
2023-03-27T15:27:53.084Z,6.34
2023-03-27T15:30:37.558Z,6.22
2023-03-27T15:33:07.345Z,6.17
2023-03-27T15:35:47.194Z,6.18
2023-03-27T15:38:18.609Z,6.18
2023-03-27T15:40:46.575Z,6.20
2023-03-27T15:43:13.344Z,6.18
2023-03-27T15:45:58.804Z,6.09
2023-03-27T15:48:38.681Z,5.92
2023-03-27T15:51:10.510Z,5.73
2023-03-27T15:53:47.304Z,5.67
2023-03-27T15:56:13.764Z,5.66
2023-03-27T15:58:47.494Z,5.65
2023-03-27T16:01:21.519Z,5.70
2023-03-27T16:03:50.499Z,5.70
2023-03-27T16:06:36.446Z,5.62
2023-03-27T16:09:21.400Z,5.49
2023-03-27T16:11:49.685Z,5.33
2023-03-27T16:14:26.754Z,5.26
2023-03-27T16:17:10.879Z,5.22
2023-03-27T16:19:57.169Z,5.20
2023-03-27T16:22:26.379Z,5.12
2023-03-27T16:24:54.104Z,5.09
2023-03-27T16:27:23.696Z,5.13
2023-03-27T16:29:53.894Z,5.18
2023-03-27T16:32:22.523Z,5.17
2023-03-27T16:34:51.678Z,5.12
2023-03-27T16:37:20.928Z,5.10
2023-03-27T16:39:47.429Z,5.09
2023-03-27T16:42:16.940Z,5.03
2023-03-27T16:44:44.586Z,5.00
2023-03-27T16:47:12.655Z,5.03
2023-03-27T16:49:40.115Z,5.02
2023-03-27T16:52:06.923Z,4.94
2023-03-27T16:54:33.408Z,4.92
2023-03-27T16:57:00.800Z,4.94
2023-03-27T16:59:28.357Z,4.94
2023-03-27T17:01:56.059Z,4.95
2023-03-27T17:04:22.712Z,5.00
2023-03-27T17:06:49.322Z,5.13
2023-03-27T17:09:17.564Z,5.13
2023-03-27T17:11:44.438Z,5.07
2023-03-27T17:14:11.833Z,5.03
2023-03-27T17:16:39.756Z,4.92
2023-03-27T17:19:06.562Z,4.87
2023-03-27T17:21:33.158Z,4.78
2023-03-27T17:24:00.934Z,4.73
2023-03-27T17:26:30.334Z,4.66
2023-03-27T17:28:57.649Z,4.57
2023-03-27T17:31:24.998Z,4.48
2023-03-27T17:33:52.057Z,4.44
2023-03-27T17:36:29.784Z,4.42
2023-03-27T17:39:07.907Z,4.39
2023-03-27T17:41:34.375Z,4.36
2023-03-27T17:44:00.989Z,4.32
2023-03-27T17:46:27.518Z,4.30
2023-03-27T17:48:54.179Z,4.29
2023-03-27T17:51:21.567Z,4.29
2023-03-27T17:53:48.152Z,4.28
2023-03-27T17:56:14.638Z,4.28
2023-03-27T17:58:41.869Z,4.29
2023-03-27T18:01:19.886Z,4.28
2023-03-27T18:03:46.983Z,4.31
2023-03-27T18:06:17.304Z,4.32
2023-03-27T18:08:45.002Z,4.32
2023-03-27T18:11:13.577Z,4.35
2023-03-27T18:13:41.474Z,4.36
2023-03-27T18:16:10.565Z,4.38
2023-03-27T18:18:39.171Z,4.36
2023-03-27T18:21:09.991Z,4.38
2023-03-27T18:23:38.344Z,4.37
2023-03-27T18:26:12.803Z,4.38
2023-03-27T18:28:39.548Z,4.38
2023-03-27T18:31:09.135Z,4.39
2023-03-27T18:33:36.143Z,4.39
2023-03-27T18:36:04.325Z,4.36
2023-03-27T18:38:31.191Z,4.36
2023-03-27T18:40:59.810Z,4.34
2023-03-27T18:43:26.662Z,4.32
2023-03-27T18:46:02.150Z,4.35
2023-03-27T18:48:30.957Z,4.38
2023-03-27T18:50:59.881Z,4.38
2023-03-27T18:53:27.139Z,4.41
2023-03-27T18:55:54.510Z,4.39
2023-03-27T18:58:24.098Z,4.40
2023-03-27T19:00:52.893Z,4.42
2023-03-27T19:03:23.846Z,4.39
2023-03-27T19:05:51.748Z,4.36
2023-03-27T19:08:19.881Z,4.33
2023-03-27T19:10:46.576Z,4.29
2023-03-27T19:13:13.353Z,4.25
2023-03-27T19:15:41.822Z,4.26
2023-03-27T19:18:08.748Z,4.23
2023-03-27T19:20:35.634Z,4.21
2023-03-27T19:23:02.128Z,4.16
2023-03-27T19:25:28.668Z,4.06
2023-03-27T19:27:55.993Z,3.89
2023-03-27T19:30:22.506Z,3.80
2023-03-27T19:32:50.423Z,3.75
2023-03-27T19:35:17.212Z,3.73
2023-03-27T19:37:43.792Z,3.71
2023-03-27T19:40:10.642Z,3.69
2023-03-27T19:42:37.105Z,3.70
2023-03-27T19:45:03.962Z,3.71
2023-03-27T19:47:30.406Z,3.72
2023-03-27T19:49:57.373Z,3.69
2023-03-27T19:52:25.795Z,3.70
2023-03-27T19:54:53.750Z,3.72
2023-03-27T19:57:20.933Z,3.70
2023-03-27T19:59:47.429Z,3.69
2023-03-27T20:02:14.425Z,3.63
2023-03-27T20:04:40.958Z,3.62
2023-03-27T20:07:07.639Z,3.59
2023-03-27T20:09:34.583Z,3.55
2023-03-27T20:12:01.418Z,3.52
2023-03-27T20:14:27.915Z,3.45
2023-03-27T20:16:54.649Z,3.42
2023-03-27T20:19:22.160Z,3.42
2023-03-27T20:21:48.978Z,3.40
2023-03-27T20:24:17.292Z,3.40
2023-03-27T20:26:47.963Z,3.40
2023-03-27T20:29:20.313Z,3.43
2023-03-27T20:31:47.923Z,3.44
2023-03-27T20:34:19.150Z,3.47
2023-03-27T20:36:45.972Z,3.48
2023-03-27T20:39:14.153Z,3.48
2023-03-27T20:41:40.824Z,3.51
2023-03-27T20:44:15.697Z,3.51
2023-03-27T20:46:47.409Z,3.54
2023-03-27T20:49:37.497Z,3.54
2023-03-27T20:52:12.844Z,3.50
2023-03-27T20:54:39.369Z,3.45
2023-03-27T20:57:05.891Z,3.41
2023-03-27T20:59:32.315Z,3.37
2023-03-27T21:01:59.600Z,3.37
2023-03-27T21:04:28.160Z,3.38
2023-03-27T21:06:57.723Z,3.39
2023-03-27T21:09:26.960Z,3.40
2023-03-27T21:11:55.074Z,3.39
2023-03-27T21:14:21.862Z,3.39
2023-03-27T21:16:48.617Z,3.41
2023-03-27T21:19:15.862Z,3.44
2023-03-27T21:21:42.643Z,3.45
2023-03-27T21:24:09.190Z,3.47
2023-03-27T21:26:36.483Z,3.50
2023-03-27T21:29:03.559Z,3.48
2023-03-27T21:31:30.791Z,3.48
2023-03-27T21:33:57.340Z,3.46
2023-03-27T21:36:24.568Z,3.46
2023-03-27T21:38:51.784Z,3.41
2023-03-27T21:41:19.798Z,3.38
2023-03-27T21:43:46.234Z,3.34
2023-03-27T21:46:12.885Z,3.31
2023-03-27T21:48:40.720Z,3.28
2023-03-27T21:51:08.380Z,3.24
2023-03-27T21:53:35.828Z,3.22
2023-03-27T21:56:02.956Z,3.17
2023-03-27T21:58:29.970Z,3.14
2023-03-27T22:00:57.606Z,3.11
2023-03-27T22:03:25.577Z,3.10
2023-03-27T22:06:08.076Z,3.08
2023-03-27T22:08:38.250Z,3.09
2023-03-27T22:11:05.344Z,3.06
2023-03-27T22:13:31.888Z,3.05
2023-03-27T22:15:58.659Z,3.00
2023-03-27T22:18:25.601Z,2.97
2023-03-27T22:20:52.035Z,2.95
2023-03-27T22:23:19.269Z,2.92
2023-03-27T22:25:53.253Z,2.91
2023-03-27T22:28:19.722Z,2.89
2023-03-27T22:30:46.131Z,2.86
2023-03-27T22:33:12.472Z,2.84
2023-03-27T22:35:38.960Z,2.80
2023-03-27T22:38:05.532Z,2.77
2023-03-27T22:40:31.997Z,2.76
2023-03-27T22:42:58.384Z,2.74
2023-03-27T22:45:24.936Z,2.73
2023-03-27T22:47:51.493Z,2.70
2023-03-27T22:50:17.982Z,2.67
2023-03-27T22:52:44.379Z,2.66
2023-03-27T22:55:11.068Z,2.62
2023-03-27T22:57:37.684Z,2.62
2023-03-27T23:00:06.207Z,2.62
2023-03-27T23:02:32.696Z,2.61
2023-03-27T23:04:59.188Z,2.62
2023-03-27T23:07:25.640Z,2.61
2023-03-27T23:09:52.076Z,2.61
2023-03-27T23:12:18.432Z,2.62
2023-03-27T23:14:44.824Z,2.61
2023-03-27T23:17:11.324Z,2.61
2023-03-27T23:19:37.752Z,2.62
2023-03-27T23:22:04.174Z,2.59
2023-03-27T23:24:31.031Z,2.55
2023-03-27T23:26:57.425Z,2.53
2023-03-27T23:29:23.934Z,2.50
2023-03-27T23:31:50.717Z,2.49
2023-03-27T23:34:17.119Z,2.49
2023-03-27T23:36:43.952Z,2.45
2023-03-27T23:39:10.359Z,2.42
2023-03-27T23:41:36.753Z,2.40
2023-03-27T23:44:03.410Z,2.40
2023-03-27T23:46:29.921Z,2.39
2023-03-27T23:48:56.265Z,2.38
2023-03-27T23:51:22.754Z,2.37
2023-03-27T23:53:50.457Z,2.37
2023-03-27T23:56:16.890Z,2.37
2023-03-27T23:58:43.394Z,2.37
